Terminal Aerodrome Forecast
Issued by NWS Shreveport, LA

Home | Current Version | Previous Version | Text Only | Print | Product List | Glossary On
Versions: 1 2 3 4 5 6 7 8 9 10 11 12 13 14 15 16 17 18 19 20 21 22 23 24 25 26 27 28 29
000
FTUS44 KSHV 221700
TAFLFK
TAF
KLFK 221720Z 2218/2318 11005KT P6SM SCT030
     FM230000 VRB03KT P6SM SKC
      TEMPO 2310/2313 4SM BR
     FM231500 VRB04KT P6SM SCT035=

USA.gov is the U.S. government's official web portal to all federal, state and local government web resources and services.